Terminal Aerodrome Forecast
Issued by NWS Springfield, MO

Home | Current Version | Previous Version | Text Only | Print | Product List | Glossary On
Versions: 1 2 3 4 5 6 7 8 9 10 11 12 13 14 15 16 17 18 19 20 21
000
FTUS43 KSGF 271120
TAFSGF
TAF
KSGF 271120Z 2712/2812 15006KT 5SM BR BKN025
      TEMPO 2712/2715 SCT025
     FM271800 17008KT P6SM BKN035
     FM272200 18012G21KT P6SM VCTS BKN040CB
      TEMPO 2723/2803 VRB25G35KT 2SM +TSRA BR OVC025CB
     FM280500 24005KT 5SM BR BKN020
     FM281000 30007KT P6SM BKN008=

USA.gov is the U.S. government's official web portal to all federal, state and local government web resources and services.